sensor_id;sensor_type;location;lat;lon;timestamp;temperature;humidity
2897;DHT22;1458;49.728;9.228;2023-04-24T00:00:12;10.50;99.90
2897;DHT22;1458;49.728;9.228;2023-04-24T00:02:42;10.50;99.90
2897;DHT22;1458;49.728;9.228;2023-04-24T00:05:12;10.50;99.90
2897;DHT22;1458;49.728;9.228;2023-04-24T00:07:40;10.50;99.90
2897;DHT22;1458;49.728;9.228;2023-04-24T00:10:10;10.50;99.90
2897;DHT22;1458;49.728;9.228;2023-04-24T00:12:38;10.70;99.90
2897;DHT22;1458;49.728;9.228;2023-04-24T00:15:07;10.70;99.90
2897;DHT22;1458;49.728;9.228;2023-04-24T00:17:35;10.70;99.90
2897;DHT22;1458;49.728;9.228;2023-04-24T00:20:04;10.60;99.90
2897;DHT22;1458;49.728;9.228;2023-04-24T00:22:33;10.60;99.90
2897;DHT22;1458;49.728;9.228;2023-04-24T00:25:00;10.60;99.90
2897;DHT22;1458;49.728;9.228;2023-04-24T00:27:30;10.60;99.90
2897;DHT22;1458;49.728;9.228;2023-04-24T00:29:58;10.60;99.90
2897;DHT22;1458;49.728;9.228;2023-04-24T00:32:25;10.60;99.90
2897;DHT22;1458;49.728;9.228;2023-04-24T00:34:54;10.60;99.90
2897;DHT22;1458;49.728;9.228;2023-04-24T00:37:22;10.80;99.90
2897;DHT22;1458;49.728;9.228;2023-04-24T00:39:50;10.70;99.90
2897;DHT22;1458;49.728;9.228;2023-04-24T00:42:17;10.60;99.90
2897;DHT22;1458;49.728;9.228;2023-04-24T00:44:47;10.60;99.90
2897;DHT22;1458;49.728;9.228;2023-04-24T00:47:19;10.70;99.90
2897;DHT22;1458;49.728;9.228;2023-04-24T00:49:47;10.60;99.90
2897;DHT22;1458;49.728;9.228;2023-04-24T00:52:15;10.50;99.90
2897;DHT22;1458;49.728;9.228;2023-04-24T00:54:43;10.60;99.90
2897;DHT22;1458;49.728;9.228;2023-04-24T00:57:11;10.60;99.90
2897;DHT22;1458;49.728;9.228;2023-04-24T00:59:41;10.60;99.90
2897;DHT22;1458;49.728;9.228;2023-04-24T01:02:11;10.70;99.90
2897;DHT22;1458;49.728;9.228;2023-04-24T01:04:39;10.80;99.90
2897;DHT22;1458;49.728;9.228;2023-04-24T01:07:07;10.90;99.90
2897;DHT22;1458;49.728;9.228;2023-04-24T01:09:38;11.00;99.90
2897;DHT22;1458;49.728;9.228;2023-04-24T01:12:07;11.00;99.90
2897;DHT22;1458;49.728;9.228;2023-04-24T01:14:37;11.10;99.90
2897;DHT22;1458;49.728;9.228;2023-04-24T01:17:04;11.00;99.90
2897;DHT22;1458;49.728;9.228;2023-04-24T01:19:34;11.00;99.90
2897;DHT22;1458;49.728;9.228;2023-04-24T01:22:08;11.10;99.90
2897;DHT22;1458;49.728;9.228;2023-04-24T01:24:37;11.10;99.90
2897;DHT22;1458;49.728;9.228;2023-04-24T01:27:05;11.20;99.90
2897;DHT22;1458;49.728;9.228;2023-04-24T01:29:34;11.20;99.90
2897;DHT22;1458;49.728;9.228;2023-04-24T01:32:02;11.10;99.90
2897;DHT22;1458;49.728;9.228;2023-04-24T01:34:31;11.30;99.90
2897;DHT22;1458;49.728;9.228;2023-04-24T01:36:59;11.20;99.90
2897;DHT22;1458;49.728;9.228;2023-04-24T01:39:28;11.20;99.90
2897;DHT22;1458;49.728;9.228;2023-04-24T01:41:56;11.30;99.90
2897;DHT22;1458;49.728;9.228;2023-04-24T01:44:24;11.30;99.90
2897;DHT22;1458;49.728;9.228;2023-04-24T01:46:52;11.40;99.90
2897;DHT22;1458;49.728;9.228;2023-04-24T01:49:20;11.40;99.90
2897;DHT22;1458;49.728;9.228;2023-04-24T01:51:47;11.40;99.90
2897;DHT22;1458;49.728;9.228;2023-04-24T01:54:15;11.30;99.90
2897;DHT22;1458;49.728;9.228;2023-04-24T01:56:44;11.30;99.90
2897;DHT22;1458;49.728;9.228;2023-04-24T01:59:13;11.30;99.90
2897;DHT22;1458;49.728;9.228;2023-04-24T02:01:41;11.40;99.90
2897;DHT22;1458;49.728;9.228;2023-04-24T02:04:09;11.40;99.90
2897;DHT22;1458;49.728;9.228;2023-04-24T02:06:37;11.40;99.90
2897;DHT22;1458;49.728;9.228;2023-04-24T02:09:04;11.40;99.90
2897;DHT22;1458;49.728;9.228;2023-04-24T02:11:32;11.40;99.90
2897;DHT22;1458;49.728;9.228;2023-04-24T02:14:01;11.30;99.90
2897;DHT22;1458;49.728;9.228;2023-04-24T02:16:28;11.30;99.90
2897;DHT22;1458;49.728;9.228;2023-04-24T02:18:58;11.30;99.90
2897;DHT22;1458;49.728;9.228;2023-04-24T02:21:26;11.40;99.90
2897;DHT22;1458;49.728;9.228;2023-04-24T02:23:54;11.30;99.90
2897;DHT22;1458;49.728;9.228;2023-04-24T02:26:22;11.30;99.90
2897;DHT22;1458;49.728;9.228;2023-04-24T02:28:51;11.30;99.90
2897;DHT22;1458;49.728;9.228;2023-04-24T02:31:21;11.20;99.90
2897;DHT22;1458;49.728;9.228;2023-04-24T02:33:49;11.30;99.90
2897;DHT22;1458;49.728;9.228;2023-04-24T02:36:17;11.20;99.90
2897;DHT22;1458;49.728;9.228;2023-04-24T02:38:44;11.20;99.90
2897;DHT22;1458;49.728;9.228;2023-04-24T02:41:12;11.30;99.90
2897;DHT22;1458;49.728;9.228;2023-04-24T02:43:42;11.40;99.90
2897;DHT22;1458;49.728;9.228;2023-04-24T02:46:09;11.30;99.90
2897;DHT22;1458;49.728;9.228;2023-04-24T02:48:38;11.40;99.90
2897;DHT22;1458;49.728;9.228;2023-04-24T02:51:07;11.40;99.90
2897;DHT22;1458;49.728;9.228;2023-04-24T02:53:34;11.30;99.90
2897;DHT22;1458;49.728;9.228;2023-04-24T02:56:02;11.30;99.90
2897;DHT22;1458;49.728;9.228;2023-04-24T02:58:31;11.40;99.90
2897;DHT22;1458;49.728;9.228;2023-04-24T03:00:58;11.30;99.90
2897;DHT22;1458;49.728;9.228;2023-04-24T03:03:26;11.20;99.90
2897;DHT22;1458;49.728;9.228;2023-04-24T03:05:55;11.00;99.90
2897;DHT22;1458;49.728;9.228;2023-04-24T03:08:24;10.90;99.90
2897;DHT22;1458;49.728;9.228;2023-04-24T03:10:52;11.00;99.90
2897;DHT22;1458;49.728;9.228;2023-04-24T03:13:19;11.10;99.90
2897;DHT22;1458;49.728;9.228;2023-04-24T03:15:47;11.20;99.90
2897;DHT22;1458;49.728;9.228;2023-04-24T03:18:14;11.30;99.90
2897;DHT22;1458;49.728;9.228;2023-04-24T03:20:42;11.30;99.90
2897;DHT22;1458;49.728;9.228;2023-04-24T03:23:15;11.40;99.90
2897;DHT22;1458;49.728;9.228;2023-04-24T03:25:42;11.30;99.90
2897;DHT22;1458;49.728;9.228;2023-04-24T03:28:12;11.40;99.90
2897;DHT22;1458;49.728;9.228;2023-04-24T03:30:48;11.40;99.90
2897;DHT22;1458;49.728;9.228;2023-04-24T03:33:17;11.40;99.90
2897;DHT22;1458;49.728;9.228;2023-04-24T03:35:54;11.40;99.90
2897;DHT22;1458;49.728;9.228;2023-04-24T03:38:23;11.40;99.90
2897;DHT22;1458;49.728;9.228;2023-04-24T03:41:09;11.30;99.90
2897;DHT22;1458;49.728;9.228;2023-04-24T03:43:45;11.20;99.90
2897;DHT22;1458;49.728;9.228;2023-04-24T03:46:13;11.20;99.90
2897;DHT22;1458;49.728;9.228;2023-04-24T03:48:45;11.20;99.90
2897;DHT22;1458;49.728;9.228;2023-04-24T03:51:16;11.10;99.90
2897;DHT22;1458;49.728;9.228;2023-04-24T03:53:47;10.90;99.90
2897;DHT22;1458;49.728;9.228;2023-04-24T03:56:18;11.00;99.90
2897;DHT22;1458;49.728;9.228;2023-04-24T03:58:46;10.90;99.90
2897;DHT22;1458;49.728;9.228;2023-04-24T04:01:15;10.80;99.90
2897;DHT22;1458;49.728;9.228;2023-04-24T04:03:51;10.80;99.90
2897;DHT22;1458;49.728;9.228;2023-04-24T04:06:22;10.70;99.90
2897;DHT22;1458;49.728;9.228;2023-04-24T04:08:53;10.70;99.90
2897;DHT22;1458;49.728;9.228;2023-04-24T04:11:20;10.70;99.90
2897;DHT22;1458;49.728;9.228;2023-04-24T04:13:48;10.70;99.90
2897;DHT22;1458;49.728;9.228;2023-04-24T04:16:18;10.70;99.90
2897;DHT22;1458;49.728;9.228;2023-04-24T04:18:49;10.80;99.90
2897;DHT22;1458;49.728;9.228;2023-04-24T04:21:17;10.60;99.90
2897;DHT22;1458;49.728;9.228;2023-04-24T04:23:44;10.60;99.90
2897;DHT22;1458;49.728;9.228;2023-04-24T04:26:23;10.60;99.90
2897;DHT22;1458;49.728;9.228;2023-04-24T04:28:59;10.60;99.90
2897;DHT22;1458;49.728;9.228;2023-04-24T04:31:28;10.50;99.90
2897;DHT22;1458;49.728;9.228;2023-04-24T04:33:58;10.50;99.90
2897;DHT22;1458;49.728;9.228;2023-04-24T04:36:29;10.40;99.90
2897;DHT22;1458;49.728;9.228;2023-04-24T04:39:04;10.30;99.90
2897;DHT22;1458;49.728;9.228;2023-04-24T04:41:53;10.10;99.90
2897;DHT22;1458;49.728;9.228;2023-04-24T04:44:25;10.00;99.90
2897;DHT22;1458;49.728;9.228;2023-04-24T04:46:53;10.00;99.90
2897;DHT22;1458;49.728;9.228;2023-04-24T04:49:27;9.90;99.90
2897;DHT22;1458;49.728;9.228;2023-04-24T04:51:55;9.90;99.90
2897;DHT22;1458;49.728;9.228;2023-04-24T04:54:25;9.90;99.90
2897;DHT22;1458;49.728;9.228;2023-04-24T04:56:54;9.80;99.90
2897;DHT22;1458;49.728;9.228;2023-04-24T04:59:23;9.80;99.90
2897;DHT22;1458;49.728;9.228;2023-04-24T05:01:57;9.90;99.90
2897;DHT22;1458;49.728;9.228;2023-04-24T05:04:25;10.00;99.90
2897;DHT22;1458;49.728;9.228;2023-04-24T05:06:52;10.10;99.90
2897;DHT22;1458;49.728;9.228;2023-04-24T05:09:22;10.20;99.90
2897;DHT22;1458;49.728;9.228;2023-04-24T05:11:57;10.10;99.90
2897;DHT22;1458;49.728;9.228;2023-04-24T05:14:26;10.10;99.90
2897;DHT22;1458;49.728;9.228;2023-04-24T05:16:53;10.10;99.90
2897;DHT22;1458;49.728;9.228;2023-04-24T05:19:24;10.10;99.90
2897;DHT22;1458;49.728;9.228;2023-04-24T05:21:51;10.00;99.90
2897;DHT22;1458;49.728;9.228;2023-04-24T05:24:19;10.10;99.90
2897;DHT22;1458;49.728;9.228;2023-04-24T05:27:14;10.00;99.90
2897;DHT22;1458;49.728;9.228;2023-04-24T05:29:41;10.00;99.90
2897;DHT22;1458;49.728;9.228;2023-04-24T05:32:09;10.10;99.90
2897;DHT22;1458;49.728;9.228;2023-04-24T05:34:37;10.20;99.90
2897;DHT22;1458;49.728;9.228;2023-04-24T05:37:05;10.20;99.90
2897;DHT22;1458;49.728;9.228;2023-04-24T05:39:35;10.40;99.90
2897;DHT22;1458;49.728;9.228;2023-04-24T05:42:04;10.50;99.90
2897;DHT22;1458;49.728;9.228;2023-04-24T05:44:33;10.60;99.90
2897;DHT22;1458;49.728;9.228;2023-04-24T05:47:01;10.90;99.90
2897;DHT22;1458;49.728;9.228;2023-04-24T05:49:28;11.30;99.90
2897;DHT22;1458;49.728;9.228;2023-04-24T05:51:57;11.70;99.90
2897;DHT22;1458;49.728;9.228;2023-04-24T05:54:24;12.00;99.90
2897;DHT22;1458;49.728;9.228;2023-04-24T05:56:52;12.20;99.90
2897;DHT22;1458;49.728;9.228;2023-04-24T05:59:30;12.30;99.90
2897;DHT22;1458;49.728;9.228;2023-04-24T06:02:00;12.30;99.90
2897;DHT22;1458;49.728;9.228;2023-04-24T06:04:28;12.40;99.90
2897;DHT22;1458;49.728;9.228;2023-04-24T06:06:58;12.40;99.90
2897;DHT22;1458;49.728;9.228;2023-04-24T06:09:25;12.20;99.90
2897;DHT22;1458;49.728;9.228;2023-04-24T06:11:53;12.30;99.90
2897;DHT22;1458;49.728;9.228;2023-04-24T06:14:27;12.40;99.90
2897;DHT22;1458;49.728;9.228;2023-04-24T06:17:16;12.60;99.90
2897;DHT22;1458;49.728;9.228;2023-04-24T06:19:44;12.50;99.90
2897;DHT22;1458;49.728;9.228;2023-04-24T06:22:13;12.50;99.90
2897;DHT22;1458;49.728;9.228;2023-04-24T06:24:41;12.50;99.90
2897;DHT22;1458;49.728;9.228;2023-04-24T06:27:08;12.70;99.90
2897;DHT22;1458;49.728;9.228;2023-04-24T06:29:36;12.60;99.90
2897;DHT22;1458;49.728;9.228;2023-04-24T06:32:04;12.50;99.90
2897;DHT22;1458;49.728;9.228;2023-04-24T06:34:33;12.50;99.80
2897;DHT22;1458;49.728;9.228;2023-04-24T06:37:02;12.60;98.00
2897;DHT22;1458;49.728;9.228;2023-04-24T06:39:30;12.80;96.70
2897;DHT22;1458;49.728;9.228;2023-04-24T06:41:58;13.00;97.40
2897;DHT22;1458;49.728;9.228;2023-04-24T06:44:26;13.30;97.40
2897;DHT22;1458;49.728;9.228;2023-04-24T06:46:53;13.70;96.70
2897;DHT22;1458;49.728;9.228;2023-04-24T06:49:21;13.90;95.70
2897;DHT22;1458;49.728;9.228;2023-04-24T06:51:51;14.00;92.80
2897;DHT22;1458;49.728;9.228;2023-04-24T06:54:18;14.10;91.30
2897;DHT22;1458;49.728;9.228;2023-04-24T06:56:46;14.00;90.70
2897;DHT22;1458;49.728;9.228;2023-04-24T06:59:14;14.00;89.40
2897;DHT22;1458;49.728;9.228;2023-04-24T07:01:42;14.30;90.50
2897;DHT22;1458;49.728;9.228;2023-04-24T07:04:09;13.90;90.40
2897;DHT22;1458;49.728;9.228;2023-04-24T07:06:37;13.90;90.90
2897;DHT22;1458;49.728;9.228;2023-04-24T07:09:06;13.90;92.00
2897;DHT22;1458;49.728;9.228;2023-04-24T07:11:35;13.80;89.40
2897;DHT22;1458;49.728;9.228;2023-04-24T07:14:04;13.70;85.40
2897;DHT22;1458;49.728;9.228;2023-04-24T07:16:32;13.30;90.00
2897;DHT22;1458;49.728;9.228;2023-04-24T07:18:59;13.20;90.50
2897;DHT22;1458;49.728;9.228;2023-04-24T07:21:27;12.80;89.80
2897;DHT22;1458;49.728;9.228;2023-04-24T07:23:54;12.70;90.70
2897;DHT22;1458;49.728;9.228;2023-04-24T07:26:23;12.80;90.70
2897;DHT22;1458;49.728;9.228;2023-04-24T07:28:50;13.00;91.70
2897;DHT22;1458;49.728;9.228;2023-04-24T07:31:18;13.10;90.60
2897;DHT22;1458;49.728;9.228;2023-04-24T07:33:45;12.90;90.00
2897;DHT22;1458;49.728;9.228;2023-04-24T07:36:13;12.80;90.60
2897;DHT22;1458;49.728;9.228;2023-04-24T07:38:44;12.60;91.00
2897;DHT22;1458;49.728;9.228;2023-04-24T07:41:12;12.30;91.50
2897;DHT22;1458;49.728;9.228;2023-04-24T07:43:41;12.30;91.50
2897;DHT22;1458;49.728;9.228;2023-04-24T07:46:09;12.40;92.30
2897;DHT22;1458;49.728;9.228;2023-04-24T07:48:36;12.30;92.60
2897;DHT22;1458;49.728;9.228;2023-04-24T07:51:04;12.30;92.00
2897;DHT22;1458;49.728;9.228;2023-04-24T07:53:31;12.40;92.00
2897;DHT22;1458;49.728;9.228;2023-04-24T07:55:59;12.80;92.40
2897;DHT22;1458;49.728;9.228;2023-04-24T07:58:26;13.00;90.60
2897;DHT22;1458;49.728;9.228;2023-04-24T08:00:55;12.90;90.10
2897;DHT22;1458;49.728;9.228;2023-04-24T08:03:22;12.70;87.00
2897;DHT22;1458;49.728;9.228;2023-04-24T08:05:50;13.00;88.30
2897;DHT22;1458;49.728;9.228;2023-04-24T08:08:19;13.00;88.00
2897;DHT22;1458;49.728;9.228;2023-04-24T08:10:48;13.00;86.60
2897;DHT22;1458;49.728;9.228;2023-04-24T08:13:15;13.30;85.80
2897;DHT22;1458;49.728;9.228;2023-04-24T08:15:43;13.40;86.70
2897;DHT22;1458;49.728;9.228;2023-04-24T08:18:11;13.10;84.20
2897;DHT22;1458;49.728;9.228;2023-04-24T08:20:41;12.90;83.50
2897;DHT22;1458;49.728;9.228;2023-04-24T08:23:09;13.00;85.70
2897;DHT22;1458;49.728;9.228;2023-04-24T08:25:37;12.90;86.50
2897;DHT22;1458;49.728;9.228;2023-04-24T08:28:06;13.20;84.20
2897;DHT22;1458;49.728;9.228;2023-04-24T08:30:33;13.60;84.30
2897;DHT22;1458;49.728;9.228;2023-04-24T08:33:01;13.80;78.30
2897;DHT22;1458;49.728;9.228;2023-04-24T08:35:30;13.70;79.30
2897;DHT22;1458;49.728;9.228;2023-04-24T08:37:57;13.50;81.30
2897;DHT22;1458;49.728;9.228;2023-04-24T08:40:27;13.50;82.50
2897;DHT22;1458;49.728;9.228;2023-04-24T08:42:56;13.50;78.40
2897;DHT22;1458;49.728;9.228;2023-04-24T08:45:24;13.70;75.00
2897;DHT22;1458;49.728;9.228;2023-04-24T08:47:53;14.10;80.50
2897;DHT22;1458;49.728;9.228;2023-04-24T08:50:22;14.90;79.40
2897;DHT22;1458;49.728;9.228;2023-04-24T08:52:52;15.00;74.70
2897;DHT22;1458;49.728;9.228;2023-04-24T08:55:24;14.40;73.50
2897;DHT22;1458;49.728;9.228;2023-04-24T08:57:53;14.20;76.50
2897;DHT22;1458;49.728;9.228;2023-04-24T09:00:21;14.10;74.70
2897;DHT22;1458;49.728;9.228;2023-04-24T09:02:49;13.80;75.30
2897;DHT22;1458;49.728;9.228;2023-04-24T09:05:17;13.10;75.20
2897;DHT22;1458;49.728;9.228;2023-04-24T09:07:48;12.50;77.40
2897;DHT22;1458;49.728;9.228;2023-04-24T09:10:20;12.40;78.30
2897;DHT22;1458;49.728;9.228;2023-04-24T09:12:50;12.30;80.90
2897;DHT22;1458;49.728;9.228;2023-04-24T09:15:18;12.50;82.30
2897;DHT22;1458;49.728;9.228;2023-04-24T09:17:47;12.70;81.40
2897;DHT22;1458;49.728;9.228;2023-04-24T09:20:15;12.80;80.60
2897;DHT22;1458;49.728;9.228;2023-04-24T09:22:43;13.00;80.40
2897;DHT22;1458;49.728;9.228;2023-04-24T09:25:14;13.10;81.50
2897;DHT22;1458;49.728;9.228;2023-04-24T09:27:42;13.40;77.80
2897;DHT22;1458;49.728;9.228;2023-04-24T09:30:11;13.40;76.10
2897;DHT22;1458;49.728;9.228;2023-04-24T09:32:39;13.60;76.00
2897;DHT22;1458;49.728;9.228;2023-04-24T09:35:11;13.70;73.30
2897;DHT22;1458;49.728;9.228;2023-04-24T09:37:41;13.50;75.90
2897;DHT22;1458;49.728;9.228;2023-04-24T09:40:16;13.50;76.40
2897;DHT22;1458;49.728;9.228;2023-04-24T09:42:45;13.60;77.70
2897;DHT22;1458;49.728;9.228;2023-04-24T09:45:12;13.80;75.50
2897;DHT22;1458;49.728;9.228;2023-04-24T09:47:41;14.00;77.40
2897;DHT22;1458;49.728;9.228;2023-04-24T09:50:13;14.40;76.60
2897;DHT22;1458;49.728;9.228;2023-04-24T09:52:43;14.10;72.30
2897;DHT22;1458;49.728;9.228;2023-04-24T09:55:18;13.40;71.80
2897;DHT22;1458;49.728;9.228;2023-04-24T09:57:50;13.20;71.80
2897;DHT22;1458;49.728;9.228;2023-04-24T10:00:23;12.80;74.70
2897;DHT22;1458;49.728;9.228;2023-04-24T10:02:57;12.60;74.10
2897;DHT22;1458;49.728;9.228;2023-04-24T10:05:29;12.70;75.80
2897;DHT22;1458;49.728;9.228;2023-04-24T10:08:01;12.80;75.80
2897;DHT22;1458;49.728;9.228;2023-04-24T10:10:32;13.00;73.30
2897;DHT22;1458;49.728;9.228;2023-04-24T10:13:01;13.00;71.30
2897;DHT22;1458;49.728;9.228;2023-04-24T10:15:28;13.00;72.50
2897;DHT22;1458;49.728;9.228;2023-04-24T10:17:58;13.30;69.30
2897;DHT22;1458;49.728;9.228;2023-04-24T10:20:28;13.40;69.90
2897;DHT22;1458;49.728;9.228;2023-04-24T10:22:58;13.50;71.20
2897;DHT22;1458;49.728;9.228;2023-04-24T10:25:27;13.40;71.40
2897;DHT22;1458;49.728;9.228;2023-04-24T10:27:59;13.50;71.20
2897;DHT22;1458;49.728;9.228;2023-04-24T10:30:29;13.90;72.20
2897;DHT22;1458;49.728;9.228;2023-04-24T10:33:00;14.20;69.10
2897;DHT22;1458;49.728;9.228;2023-04-24T10:35:30;14.10;70.30
2897;DHT22;1458;49.728;9.228;2023-04-24T10:38:03;13.70;68.60
2897;DHT22;1458;49.728;9.228;2023-04-24T10:40:33;13.60;71.40
2897;DHT22;1458;49.728;9.228;2023-04-24T10:43:04;13.40;71.40
2897;DHT22;1458;49.728;9.228;2023-04-24T10:45:33;13.40;74.00
2897;DHT22;1458;49.728;9.228;2023-04-24T10:48:02;13.60;75.30
2897;DHT22;1458;49.728;9.228;2023-04-24T10:50:42;13.90;71.20
2897;DHT22;1458;49.728;9.228;2023-04-24T10:53:13;14.00;73.30
2897;DHT22;1458;49.728;9.228;2023-04-24T10:55:45;14.00;71.60
2897;DHT22;1458;49.728;9.228;2023-04-24T10:58:15;14.00;73.90
2897;DHT22;1458;49.728;9.228;2023-04-24T11:00:44;13.90;72.00
2897;DHT22;1458;49.728;9.228;2023-04-24T11:03:25;13.70;72.30
2897;DHT22;1458;49.728;9.228;2023-04-24T11:05:57;13.60;76.40
2897;DHT22;1458;49.728;9.228;2023-04-24T11:08:28;13.20;86.60
2897;DHT22;1458;49.728;9.228;2023-04-24T11:11:08;13.20;93.00
2897;DHT22;1458;49.728;9.228;2023-04-24T11:14:06;14.00;95.50
2897;DHT22;1458;49.728;9.228;2023-04-24T11:16:37;14.00;91.70
2897;DHT22;1458;49.728;9.228;2023-04-24T11:19:07;13.70;85.80
2897;DHT22;1458;49.728;9.228;2023-04-24T11:21:41;14.00;84.70
2897;DHT22;1458;49.728;9.228;2023-04-24T11:24:23;14.50;86.30
2897;DHT22;1458;49.728;9.228;2023-04-24T11:26:52;14.80;79.60
2897;DHT22;1458;49.728;9.228;2023-04-24T11:29:22;14.20;75.00
2897;DHT22;1458;49.728;9.228;2023-04-24T11:31:53;14.20;72.90
2897;DHT22;1458;49.728;9.228;2023-04-24T11:34:23;14.40;73.30
2897;DHT22;1458;49.728;9.228;2023-04-24T11:36:50;14.60;72.80
2897;DHT22;1458;49.728;9.228;2023-04-24T11:39:18;14.50;71.00
2897;DHT22;1458;49.728;9.228;2023-04-24T11:41:46;14.70;73.50
2897;DHT22;1458;49.728;9.228;2023-04-24T11:44:15;14.20;71.80
2897;DHT22;1458;49.728;9.228;2023-04-24T11:46:47;14.00;73.30
2897;DHT22;1458;49.728;9.228;2023-04-24T11:49:15;14.30;74.20
2897;DHT22;1458;49.728;9.228;2023-04-24T11:51:42;14.60;73.20
2897;DHT22;1458;49.728;9.228;2023-04-24T11:54:10;14.70;73.00
2897;DHT22;1458;49.728;9.228;2023-04-24T11:56:38;14.50;76.00
2897;DHT22;1458;49.728;9.228;2023-04-24T11:59:05;14.60;72.50
2897;DHT22;1458;49.728;9.228;2023-04-24T12:01:43;14.60;74.50
2897;DHT22;1458;49.728;9.228;2023-04-24T12:04:13;14.30;72.00
2897;DHT22;1458;49.728;9.228;2023-04-24T12:06:58;14.20;74.10
2897;DHT22;1458;49.728;9.228;2023-04-24T12:09:26;14.30;74.60
2897;DHT22;1458;49.728;9.228;2023-04-24T12:11:55;14.20;74.50
2897;DHT22;1458;49.728;9.228;2023-04-24T12:14:24;14.10;72.50
2897;DHT22;1458;49.728;9.228;2023-04-24T12:16:51;14.50;74.50
2897;DHT22;1458;49.728;9.228;2023-04-24T12:19:22;14.20;71.20
2897;DHT22;1458;49.728;9.228;2023-04-24T12:22:00;14.30;72.60
2897;DHT22;1458;49.728;9.228;2023-04-24T12:24:29;14.70;74.80
2897;DHT22;1458;49.728;9.228;2023-04-24T12:26:57;14.80;68.50
2897;DHT22;1458;49.728;9.228;2023-04-24T12:29:25;14.70;70.30
2897;DHT22;1458;49.728;9.228;2023-04-24T12:31:53;14.80;71.20
2897;DHT22;1458;49.728;9.228;2023-04-24T12:34:23;14.70;69.90
2897;DHT22;1458;49.728;9.228;2023-04-24T12:36:52;14.40;70.00
2897;DHT22;1458;49.728;9.228;2023-04-24T12:39:20;14.50;72.00
2897;DHT22;1458;49.728;9.228;2023-04-24T12:41:56;14.40;70.00
2897;DHT22;1458;49.728;9.228;2023-04-24T12:44:34;14.30;70.70
2897;DHT22;1458;49.728;9.228;2023-04-24T12:47:03;14.30;72.60
2897;DHT22;1458;49.728;9.228;2023-04-24T12:49:32;14.10;70.00
2897;DHT22;1458;49.728;9.228;2023-04-24T12:51:59;14.60;76.80
2897;DHT22;1458;49.728;9.228;2023-04-24T12:54:32;14.70;70.00
2897;DHT22;1458;49.728;9.228;2023-04-24T12:57:00;14.80;74.80
2897;DHT22;1458;49.728;9.228;2023-04-24T12:59:27;14.70;72.20
2897;DHT22;1458;49.728;9.228;2023-04-24T13:01:55;14.70;70.80
2897;DHT22;1458;49.728;9.228;2023-04-24T13:04:22;14.30;70.00
2897;DHT22;1458;49.728;9.228;2023-04-24T13:06:51;14.30;70.20
2897;DHT22;1458;49.728;9.228;2023-04-24T13:09:19;14.10;75.30
2897;DHT22;1458;49.728;9.228;2023-04-24T13:11:46;13.70;76.60
2897;DHT22;1458;49.728;9.228;2023-04-24T13:14:14;13.10;80.60
2897;DHT22;1458;49.728;9.228;2023-04-24T13:16:41;12.50;88.60
2897;DHT22;1458;49.728;9.228;2023-04-24T13:19:09;12.00;92.00
2897;DHT22;1458;49.728;9.228;2023-04-24T13:21:37;11.60;94.60
2897;DHT22;1458;49.728;9.228;2023-04-24T13:24:06;11.30;99.90
2897;DHT22;1458;49.728;9.228;2023-04-24T13:26:34;10.90;99.90
2897;DHT22;1458;49.728;9.228;2023-04-24T13:29:02;10.70;99.90
2897;DHT22;1458;49.728;9.228;2023-04-24T13:31:30;10.70;99.90
2897;DHT22;1458;49.728;9.228;2023-04-24T13:33:57;10.90;99.90
2897;DHT22;1458;49.728;9.228;2023-04-24T13:36:25;11.30;99.90
2897;DHT22;1458;49.728;9.228;2023-04-24T13:38:52;11.80;99.90
2897;DHT22;1458;49.728;9.228;2023-04-24T13:41:21;12.20;99.90
2897;DHT22;1458;49.728;9.228;2023-04-24T13:43:49;12.20;99.90
2897;DHT22;1458;49.728;9.228;2023-04-24T13:46:16;12.10;99.90
2897;DHT22;1458;49.728;9.228;2023-04-24T13:48:44;12.40;99.90
2897;DHT22;1458;49.728;9.228;2023-04-24T13:51:11;12.40;99.90
2897;DHT22;1458;49.728;9.228;2023-04-24T13:53:39;12.50;99.90
2897;DHT22;1458;49.728;9.228;2023-04-24T13:56:06;12.50;99.90
2897;DHT22;1458;49.728;9.228;2023-04-24T13:58:36;12.50;99.20
2897;DHT22;1458;49.728;9.228;2023-04-24T14:01:04;12.70;99.20
2897;DHT22;1458;49.728;9.228;2023-04-24T14:03:32;13.10;99.50
2897;DHT22;1458;49.728;9.228;2023-04-24T14:06:00;13.20;93.80
2897;DHT22;1458;49.728;9.228;2023-04-24T14:08:28;13.20;93.40
2897;DHT22;1458;49.728;9.228;2023-04-24T14:10:56;13.20;94.60
2897;DHT22;1458;49.728;9.228;2023-04-24T14:13:23;13.10;90.90
2897;DHT22;1458;49.728;9.228;2023-04-24T14:15:52;13.00;92.20
2897;DHT22;1458;49.728;9.228;2023-04-24T14:18:20;13.00;91.70
2897;DHT22;1458;49.728;9.228;2023-04-24T14:20:47;13.20;91.60
2897;DHT22;1458;49.728;9.228;2023-04-24T14:23:15;13.60;92.00
2897;DHT22;1458;49.728;9.228;2023-04-24T14:25:43;13.90;91.80
2897;DHT22;1458;49.728;9.228;2023-04-24T14:28:11;14.10;90.40
2897;DHT22;1458;49.728;9.228;2023-04-24T14:30:38;13.80;88.50
2897;DHT22;1458;49.728;9.228;2023-04-24T14:33:08;14.10;87.90
2897;DHT22;1458;49.728;9.228;2023-04-24T14:35:36;14.20;82.60
2897;DHT22;1458;49.728;9.228;2023-04-24T14:38:04;14.40;82.50
2897;DHT22;1458;49.728;9.228;2023-04-24T14:40:31;14.30;81.80
2897;DHT22;1458;49.728;9.228;2023-04-24T14:42:59;14.70;81.10
2897;DHT22;1458;49.728;9.228;2023-04-24T14:45:27;14.70;77.30
2897;DHT22;1458;49.728;9.228;2023-04-24T14:47:55;14.60;77.30
2897;DHT22;1458;49.728;9.228;2023-04-24T14:50:24;14.70;74.00
2897;DHT22;1458;49.728;9.228;2023-04-24T14:52:53;14.90;72.70
2897;DHT22;1458;49.728;9.228;2023-04-24T14:55:23;14.80;72.10
2897;DHT22;1458;49.728;9.228;2023-04-24T14:57:50;15.10;72.50
2897;DHT22;1458;49.728;9.228;2023-04-24T15:00:19;15.30;72.00
2897;DHT22;1458;49.728;9.228;2023-04-24T15:02:49;15.40;71.30
2897;DHT22;1458;49.728;9.228;2023-04-24T15:05:16;15.20;69.30
2897;DHT22;1458;49.728;9.228;2023-04-24T15:07:45;15.20;71.40
2897;DHT22;1458;49.728;9.228;2023-04-24T15:10:13;15.10;69.90
2897;DHT22;1458;49.728;9.228;2023-04-24T15:12:40;14.90;71.20
2897;DHT22;1458;49.728;9.228;2023-04-24T15:15:09;14.80;70.30
2897;DHT22;1458;49.728;9.228;2023-04-24T15:17:37;14.70;70.50
2897;DHT22;1458;49.728;9.228;2023-04-24T15:20:06;14.60;72.40
2897;DHT22;1458;49.728;9.228;2023-04-24T15:22:35;14.40;69.60
2897;DHT22;1458;49.728;9.228;2023-04-24T15:25:05;14.40;69.70
2897;DHT22;1458;49.728;9.228;2023-04-24T15:27:42;14.30;69.80
2897;DHT22;1458;49.728;9.228;2023-04-24T15:30:12;14.30;71.90
2897;DHT22;1458;49.728;9.228;2023-04-24T15:32:40;14.40;71.90
2897;DHT22;1458;49.728;9.228;2023-04-24T15:35:08;14.30;68.20
2897;DHT22;1458;49.728;9.228;2023-04-24T15:37:36;14.30;69.00
2897;DHT22;1458;49.728;9.228;2023-04-24T15:40:06;14.20;70.90
2897;DHT22;1458;49.728;9.228;2023-04-24T15:42:37;14.10;70.20
2897;DHT22;1458;49.728;9.228;2023-04-24T15:45:05;14.00;71.70
2897;DHT22;1458;49.728;9.228;2023-04-24T15:47:33;13.90;69.90
2897;DHT22;1458;49.728;9.228;2023-04-24T15:50:01;13.70;70.90
2897;DHT22;1458;49.728;9.228;2023-04-24T15:52:29;13.60;71.30
2897;DHT22;1458;49.728;9.228;2023-04-24T15:54:56;13.60;70.90
2897;DHT22;1458;49.728;9.228;2023-04-24T15:57:25;13.50;71.30
2897;DHT22;1458;49.728;9.228;2023-04-24T15:59:53;13.50;72.60
2897;DHT22;1458;49.728;9.228;2023-04-24T16:02:21;13.40;74.10
2897;DHT22;1458;49.728;9.228;2023-04-24T16:04:51;13.40;73.30
2897;DHT22;1458;49.728;9.228;2023-04-24T16:07:19;13.40;74.50
2897;DHT22;1458;49.728;9.228;2023-04-24T16:09:46;13.30;73.50
2897;DHT22;1458;49.728;9.228;2023-04-24T16:12:14;13.30;72.70
2897;DHT22;1458;49.728;9.228;2023-04-24T16:14:43;13.40;74.80